Time;durP1;ratioP1;P1;durP2;ratioP2;P2;SDS_P1;SDS_P2;PMS_P1;PMS_P2;Temp;Humidity;BMP_temperature;BMP_pressure;BME280_temperature;BME280_humidity;BME280_pressure;Samples;Min_cycle;Max_cycle;Signal;HPM_P1;HPM_P2
2021/03/09 00:01:26;;;;;;;5.45;1.30;;;-4.30;99.90;;;;;;4867550;28;20092;-78
2021/03/09 00:03:48;;;;;;;10.57;1.50;;;-4.30;99.90;;;;;;4861303;28;20109;-79
2021/03/09 00:06:13;;;;;;;5.13;1.40;;;-4.40;99.90;;;;;;4863373;28;20104;-78
2021/03/09 00:08:36;;;;;;;6.85;1.38;;;-4.50;99.90;;;;;;4888553;28;20170;-78
2021/03/09 00:10:58;;;;;;;2.05;0.85;;;-4.50;99.90;;;;;;4883336;28;20204;-77
2021/03/09 00:13:22;;;;;;;3.38;1.23;;;-4.50;99.90;;;;;;4888309;28;20179;-77
2021/03/09 00:15:44;;;;;;;3.20;1.42;;;-4.50;99.90;;;;;;4888779;28;20147;-77
2021/03/09 00:18:10;;;;;;;7.30;1.33;;;-4.50;99.90;;;;;;4861853;28;20107;-78
2021/03/09 00:20:32;;;;;;;2.15;1.05;;;-4.60;99.90;;;;;;4872207;28;20111;-77
2021/03/09 00:22:56;;;;;;;2.00;1.20;;;;;;;;;;4890134;28;20455;-77
2021/03/09 00:25:20;;;;;;;6.95;1.38;;;-4.80;99.90;;;;;;4886800;28;20104;-78
2021/03/09 00:27:43;;;;;;;5.72;1.58;;;-4.80;99.90;;;;;;4886651;28;20098;-78
2021/03/09 00:30:06;;;;;;;20.20;1.55;;;-4.80;99.90;;;;;;4888430;28;20100;-78
2021/03/09 00:32:29;;;;;;;3.20;1.10;;;-4.70;99.90;;;;;;4888543;28;20110;-78
2021/03/09 00:34:53;;;;;;;4.32;1.48;;;-4.70;99.90;;;;;;4878526;28;20104;-78
2021/03/09 00:37:15;;;;;;;5.63;1.27;;;-4.70;99.90;;;;;;4887415;28;20109;-77
2021/03/09 00:39:39;;;;;;;4.53;1.27;;;;;;;;;;4889184;28;20539;-78
2021/03/09 00:42:02;;;;;;;6.35;1.35;;;-4.70;99.90;;;;;;4857596;28;20151;-77
2021/03/09 00:44:24;;;;;;;9.13;1.42;;;-4.70;99.90;;;;;;4861085;28;20102;-78
2021/03/09 00:46:49;;;;;;;2.50;1.10;;;-4.60;99.90;;;;;;4888097;28;20130;-77
2021/03/09 00:49:13;;;;;;;3.85;1.05;;;-4.70;99.90;;;;;;4887036;28;20089;-78
2021/03/09 00:51:35;;;;;;;9.30;1.63;;;-4.60;99.90;;;;;;4888454;28;20152;-79
2021/03/09 00:53:58;;;;;;;6.18;1.25;;;-4.60;99.90;;;;;;4890038;28;20186;-77
2021/03/09 00:56:21;;;;;;;10.00;2.00;;;;;;;;;;4890693;28;20141;-77
2021/03/09 00:58:44;;;;;;;9.68;1.40;;;-4.50;99.90;;;;;;4891516;28;20088;-77
2021/03/09 01:01:07;;;;;;;5.32;1.25;;;-4.50;99.90;;;;;;4891306;28;20147;-77
2021/03/09 01:03:29;;;;;;;2.92;1.27;;;-4.50;99.90;;;;;;4888961;28;20108;-78
2021/03/09 01:05:52;;;;;;;5.70;1.30;;;-4.40;99.90;;;;;;4891863;28;20151;-78
2021/03/09 01:08:14;;;;;;;2.70;1.00;;;-4.50;99.90;;;;;;4888824;28;20095;-78
2021/03/09 01:10:37;;;;;;;3.65;1.10;;;-4.50;99.90;;;;;;4890184;28;20157;-78
2021/03/09 01:13:01;;;;;;;4.20;1.55;;;;;;;;;;4891935;28;20103;-78
2021/03/09 01:15:24;;;;;;;6.05;2.20;;;-4.60;99.90;;;;;;4880786;28;20102;-77
2021/03/09 01:17:47;;;;;;;1.60;0.90;;;-4.60;99.90;;;;;;4863839;28;20634;-77
2021/03/09 01:20:11;;;;;;;3.78;1.48;;;-4.60;99.90;;;;;;4884550;28;20096;-79
2021/03/09 01:22:33;;;;;;;5.20;0.75;;;-4.50;99.90;;;;;;4878568;28;20118;-77
2021/03/09 01:24:56;;;;;;;3.97;1.23;;;-4.50;99.90;;;;;;4889364;28;20097;-77
2021/03/09 01:27:19;;;;;;;4.47;1.10;;;-4.50;99.90;;;;;;4890873;28;20108;-77
2021/03/09 01:29:42;;;;;;;4.93;0.93;;;-4.60;99.90;;;;;;4872220;28;20460;-78
2021/03/09 01:32:07;;;;;;;8.48;2.53;;;-4.50;99.90;;;;;;4865638;28;20113;-78
2021/03/09 01:34:29;;;;;;;3.58;1.20;;;-4.50;99.90;;;;;;4890934;28;20090;-78
2021/03/09 01:36:52;;;;;;;6.40;1.15;;;-4.40;99.90;;;;;;4890004;28;20089;-77
2021/03/09 01:39:15;;;;;;;2.75;1.30;;;-4.40;99.90;;;;;;4888267;28;20104;-76
2021/03/09 01:41:38;;;;;;;5.95;1.58;;;-4.40;99.90;;;;;;4869183;28;20499;-78
2021/03/09 01:44:00;;;;;;;3.78;1.10;;;-4.40;99.90;;;;;;4866381;28;20186;-77
2021/03/09 01:46:25;;;;;;;3.92;1.63;;;;;;;;;;4867151;28;20494;-78
2021/03/09 01:48:50;;;;;;;3.60;1.45;;;-4.50;99.90;;;;;;4865843;28;20152;-77
2021/03/09 01:51:13;;;;;;;7.65;1.90;;;-4.50;99.90;;;;;;4862565;28;20103;-77
2021/03/09 01:53:36;;;;;;;2.65;1.50;;;;;;;;;;4862286;28;20100;-78
2021/03/09 01:55:59;;;;;;;1.63;0.93;;;-4.60;99.90;;;;;;4878200;28;20090;-77
2021/03/09 01:58:24;;;;;;;9.00;1.35;;;-4.60;99.90;;;;;;4890358;28;20102;-77
2021/03/09 02:00:46;;;;;;;2.10;1.00;;;-4.60;99.90;;;;;;4890006;28;21565;-78
2021/03/09 02:03:10;;;;;;;2.30;0.90;;;-4.60;99.90;;;;;;4866680;28;21865;-77
2021/03/09 02:05:33;;;;;;;3.03;0.93;;;-4.60;99.90;;;;;;4863400;28;20458;-77
2021/03/09 02:07:58;;;;;;;6.13;1.42;;;-4.60;99.90;;;;;;4886031;28;20110;-77
2021/03/09 02:10:23;;;;;;;1.63;0.80;;;-4.80;99.90;;;;;;4886069;28;20098;-77
2021/03/09 02:13:08;;;;;;;1.58;0.73;;;-4.70;99.90;;;;;;4863423;28;20118;-78
2021/03/09 02:15:35;;;;;;;2.30;0.73;;;-4.70;99.90;;;;;;4873566;28;20550;-77
2021/03/09 02:18:05;;;;;;;3.90;0.95;;;-4.60;99.90;;;;;;4885973;28;20699;-77
2021/03/09 02:21:03;;;;;;;5.80;1.23;;;-4.70;99.90;;;;;;4867469;28;20094;-77
2021/03/09 02:24:06;;;;;;;2.05;1.10;;;-4.70;99.90;;;;;;4866145;28;20228;-77
2021/03/09 02:26:50;;;;;;;2.90;1.10;;;-4.70;99.90;;;;;;4886081;28;20101;-78
2021/03/09 02:29:28;;;;;;;1.92;0.77;;;-4.80;99.90;;;;;;4885091;28;20189;-77
2021/03/09 02:31:53;;;;;;;4.85;0.93;;;-4.70;99.90;;;;;;4866601;28;20764;-76
2021/03/09 02:34:21;;;;;;;3.30;1.25;;;-4.80;99.90;;;;;;4865162;28;20108;-78
2021/03/09 02:36:47;;;;;;;8.20;0.90;;;-4.70;99.90;;;;;;4861017;28;20096;-78
2021/03/09 02:39:13;;;;;;;3.72;1.35;;;-4.70;99.90;;;;;;4887682;28;20568;-76
2021/03/09 02:41:43;;;;;;;2.80;1.23;;;-4.70;99.90;;;;;;4889301;28;20110;-76
2021/03/09 02:44:09;;;;;;;2.70;1.30;;;-4.60;99.90;;;;;;4864318;28;20103;-77
2021/03/09 02:46:35;;;;;;;3.30;1.38;;;-4.70;99.90;;;;;;4863800;28;20150;-76
2021/03/09 02:48:59;;;;;;;8.50;2.15;;;-4.70;99.90;;;;;;4885417;28;20090;-77
2021/03/09 02:51:26;;;;;;;6.40;1.98;;;-4.70;99.90;;;;;;4889582;28;20089;-77
2021/03/09 02:53:53;;;;;;;5.57;2.13;;;-4.80;99.90;;;;;;4889015;28;20093;-78
2021/03/09 02:56:17;;;;;;;5.18;1.70;;;-4.80;99.90;;;;;;4867782;28;20107;-77
2021/03/09 02:58:44;;;;;;;3.60;1.33;;;-4.80;99.90;;;;;;4863413;28;20125;-79
2021/03/09 03:01:08;;;;;;;6.00;2.35;;;-4.80;99.90;;;;;;4856901;28;20101;-79
2021/03/09 03:03:32;;;;;;;11.02;2.78;;;-4.80;99.90;;;;;;4886790;28;20099;-77
2021/03/09 03:05:59;;;;;;;4.13;1.67;;;-4.80;99.90;;;;;;4886281;28;20105;-77
2021/03/09 03:08:25;;;;;;;4.55;1.88;;;-4.80;99.90;;;;;;4889135;28;20103;-76
2021/03/09 03:10:48;;;;;;;3.47;1.30;;;-4.80;99.90;;;;;;4888820;28;20096;-77
2021/03/09 03:13:15;;;;;;;5.05;1.75;;;-4.80;99.90;;;;;;4883173;28;20091;-76
2021/03/09 03:15:39;;;;;;;7.45;2.03;;;-4.90;99.90;;;;;;4881050;28;20106;-77
2021/03/09 03:18:04;;;;;;;5.15;1.60;;;-4.90;99.90;;;;;;4872853;28;20147;-77
2021/03/09 03:20:28;;;;;;;4.85;1.60;;;-5.00;99.90;;;;;;4863017;28;20107;-77
2021/03/09 03:22:52;;;;;;;12.07;1.63;;;-4.90;99.90;;;;;;4857846;28;20185;-77
2021/03/09 03:25:16;;;;;;;12.20;2.17;;;-5.00;99.90;;;;;;4864858;28;20094;-76
2021/03/09 03:27:42;;;;;;;8.18;1.50;;;-5.00;99.90;;;;;;4889056;28;20163;-77
2021/03/09 03:30:08;;;;;;;10.90;1.50;;;-5.00;99.90;;;;;;4887303;28;20093;-77
2021/03/09 03:32:31;;;;;;;10.55;1.85;;;-5.00;99.90;;;;;;4880670;28;20149;-77
2021/03/09 03:34:55;;;;;;;11.35;2.05;;;-5.00;99.90;;;;;;4887564;28;20099;-77
2021/03/09 03:37:20;;;;;;;9.15;1.80;;;-5.10;99.90;;;;;;4889107;28;20187;-77
2021/03/09 03:39:43;;;;;;;7.30;1.77;;;-5.10;99.90;;;;;;4885765;28;20106;-79
2021/03/09 03:42:07;;;;;;;12.15;2.53;;;-5.10;99.90;;;;;;4887030;28;20101;-79
2021/03/09 03:44:29;;;;;;;5.57;1.83;;;-5.00;99.90;;;;;;4884412;28;20116;-76
2021/03/09 03:46:52;;;;;;;7.43;1.70;;;;;;;;;;4888396;28;20549;-77
2021/03/09 03:49:16;;;;;;;8.85;2.35;;;-5.20;99.90;;;;;;4884026;28;20158;-77
2021/03/09 03:51:46;;;;;;;9.77;1.95;;;-5.20;99.90;;;;;;4886700;28;20103;-78
2021/03/09 03:54:20;;;;;;;19.42;2.33;;;-5.20;99.90;;;;;;4883917;28;20099;-77
2021/03/09 03:56:52;;;;;;;7.03;2.65;;;-5.20;99.90;;;;;;4874359;28;20162;-76
2021/03/09 03:59:19;;;;;;;5.95;1.92;;;-5.10;99.90;;;;;;4881387;28;20115;-76
2021/03/09 04:01:43;;;;;;;4.22;1.92;;;-5.20;99.90;;;;;;4885530;28;20087;-78
2021/03/09 04:04:08;;;;;;;5.43;2.08;;;-5.20;99.90;;;;;;4860388;28;20472;-77
2021/03/09 04:06:32;;;;;;;;;;;-5.20;99.90;;;;;;4858472;28;20127;-76
2021/03/09 04:09:00;;;;;;;10.00;2.08;;;-5.10;99.90;;;;;;4861265;28;19979;-77
2021/03/09 04:11:25;;;;;;;7.88;2.10;;;-5.10;99.90;;;;;;4884749;28;20100;-77
2021/03/09 04:13:49;;;;;;;;;;;-5.10;99.90;;;;;;4869595;28;20101;-77
2021/03/09 04:16:16;;;;;;;5.45;1.73;;;-5.10;99.90;;;;;;4881380;28;19983;-78
2021/03/09 04:18:39;;;;;;;8.00;2.03;;;-5.10;99.90;;;;;;4871027;28;20434;-78
2021/03/09 04:21:03;;;;;;;6.18;1.80;;;-5.10;99.90;;;;;;4883976;28;20118;-79
2021/03/09 04:23:27;;;;;;;9.77;2.15;;;-5.10;99.90;;;;;;4886694;28;20120;-79
2021/03/09 04:25:53;;;;;;;9.35;2.22;;;-5.20;99.90;;;;;;4892848;28;20093;-79
2021/03/09 04:28:17;;;;;;;5.60;1.88;;;-5.20;99.90;;;;;;4889065;28;20098;-78
2021/03/09 04:30:42;;;;;;;11.60;1.50;;;-5.30;99.90;;;;;;4883506;28;20102;-78
2021/03/09 04:33:05;;;;;;;;;;;-5.30;99.90;;;;;;4870999;28;20108;-77
2021/03/09 04:35:29;;;;;;;6.32;1.90;;;-5.40;99.90;;;;;;4864875;28;19975;-76
2021/03/09 04:37:52;;;;;;;10.80;2.40;;;-4.10;99.90;;;;;;4864254;28;20103;-76
2021/03/09 04:40:15;;;;;;;4.47;1.67;;;-5.40;99.90;;;;;;4890962;28;20103;-77
2021/03/09 04:42:38;;;;;;;9.15;2.78;;;-5.40;99.90;;;;;;4886969;28;20097;-77
2021/03/09 04:45:01;;;;;;;16.48;2.40;;;-5.40;99.90;;;;;;4891339;28;20103;-76
2021/03/09 04:47:24;;;;;;;5.72;2.42;;;-5.40;99.90;;;;;;4863239;28;20561;-76
2021/03/09 04:49:48;;;;;;;13.45;2.63;;;-5.40;99.90;;;;;;4891609;28;20125;-77
2021/03/09 04:52:12;;;;;;;9.52;2.13;;;-5.40;99.90;;;;;;4889443;28;20522;-77
2021/03/09 04:54:35;;;;;;;8.60;2.63;;;-5.30;99.90;;;;;;4888098;28;20109;-76
2021/03/09 04:56:58;;;;;;;10.55;3.55;;;;;;;;;;4880774;28;20504;-76
2021/03/09 04:59:21;;;;;;;9.95;2.53;;;-5.40;99.90;;;;;;4866200;28;20100;-77
2021/03/09 05:01:43;;;;;;;12.80;1.73;;;-5.40;99.90;;;;;;4862182;28;20126;-76
2021/03/09 05:04:07;;;;;;;6.18;2.13;;;-5.40;99.90;;;;;;4862545;28;20110;-76
2021/03/09 05:06:30;;;;;;;9.43;2.10;;;-5.40;99.90;;;;;;4865348;28;20094;-76
2021/03/09 05:08:53;;;;;;;10.80;3.03;;;-5.40;99.90;;;;;;4884749;28;20170;-79
2021/03/09 05:11:16;;;;;;;5.43;2.17;;;-5.40;99.90;;;;;;4876762;28;20106;-76
2021/03/09 05:13:38;;;;;;;11.63;2.63;;;-5.30;99.90;;;;;;4882836;28;20153;-76
2021/03/09 05:16:01;;;;;;;6.75;2.40;;;-5.40;99.90;;;;;;4866171;28;20116;-76
2021/03/09 05:18:23;;;;;;;6.60;3.03;;;-5.40;99.90;;;;;;4877906;28;20511;-75
2021/03/09 05:20:49;;;;;;;10.77;2.75;;;-5.30;99.90;;;;;;4875306;28;20122;-77
2021/03/09 05:23:13;;;;;;;7.43;2.42;;;-5.30;99.90;;;;;;4891415;28;20086;-77
2021/03/09 05:25:38;;;;;;;5.38;2.47;;;-5.30;99.90;;;;;;4889644;28;20581;-76
2021/03/09 05:28:01;;;;;;;14.25;2.25;;;-5.30;99.90;;;;;;4889770;28;20095;-78
2021/03/09 05:30:24;;;;;;;6.70;1.65;;;-5.30;99.90;;;;;;4888576;28;20149;-76
2021/03/09 05:32:47;;;;;;;6.18;2.22;;;-5.30;99.90;;;;;;4889507;28;20104;-77
2021/03/09 05:35:11;;;;;;;6.72;2.95;;;-5.30;99.90;;;;;;4882277;28;20094;-76
2021/03/09 05:37:36;;;;;;;10.73;2.90;;;;;;;;;;4890614;28;20655;-78
2021/03/09 05:39:59;;;;;;;10.93;2.80;;;-5.30;99.90;;;;;;4877022;28;20093;-76
2021/03/09 05:42:23;;;;;;;13.63;2.60;;;-5.30;99.90;;;;;;4868186;28;20464;-76
2021/03/09 05:44:46;;;;;;;10.97;2.23;;;-5.40;99.90;;;;;;4868868;28;20099;-77
2021/03/09 05:47:08;;;;;;;6.32;2.10;;;-5.30;99.90;;;;;;4878812;28;20126;-76
2021/03/09 05:49:31;;;;;;;7.55;2.15;;;-5.20;99.90;;;;;;4885737;28;20112;-76
2021/03/09 05:51:55;;;;;;;21.55;3.47;;;-5.20;99.90;;;;;;4891448;28;20099;-76
2021/03/09 05:54:20;;;;;;;10.18;2.75;;;-5.20;99.90;;;;;;4889965;28;20426;-77
2021/03/09 05:56:43;;;;;;;7.22;2.75;;;-5.20;99.90;;;;;;4874107;28;20098;-77
2021/03/09 05:59:06;;;;;;;16.85;3.90;;;-5.20;99.90;;;;;;4875100;28;20106;-76
2021/03/09 06:01:28;;;;;;;5.55;2.42;;;-5.10;99.90;;;;;;4886137;28;20098;-76
2021/03/09 06:03:51;;;;;;;8.43;2.60;;;-5.10;99.90;;;;;;4861212;28;20107;-76
2021/03/09 06:06:13;;;;;;;11.98;2.92;;;-5.00;99.90;;;;;;4861810;28;20118;-76
2021/03/09 06:08:36;;;;;;;9.05;2.50;;;-5.00;99.90;;;;;;4883082;28;20113;-77
2021/03/09 06:11:16;;;;;;;10.73;3.38;;;-4.90;99.90;;;;;;4886249;28;20482;-76
2021/03/09 06:13:38;;;;;;;6.38;2.95;;;-4.80;99.90;;;;;;4887408;28;20181;-76
2021/03/09 06:16:01;;;;;;;3.78;1.85;;;-4.60;99.90;;;;;;4890105;28;20097;-77
2021/03/09 06:18:24;;;;;;;9.07;2.88;;;-4.30;99.90;;;;;;4889330;28;20097;-77
2021/03/09 06:20:47;;;;;;;11.73;2.97;;;-3.90;99.90;;;;;;4889597;28;20093;-77
2021/03/09 06:23:09;;;;;;;15.10;2.47;;;-3.60;99.90;;;;;;4876793;28;20100;-77
2021/03/09 06:25:38;;;;;;;10.10;2.65;;;-3.20;99.90;;;;;;4883676;28;20448;-76
2021/03/09 06:28:04;;;;;;;7.68;3.17;;;-2.80;99.90;;;;;;4889429;28;20104;-76
2021/03/09 06:30:30;;;;;;;7.50;2.78;;;-2.60;99.90;;;;;;4887533;28;20100;-77
2021/03/09 06:32:54;;;;;;;6.93;2.33;;;-2.40;99.90;;;;;;4862614;28;20560;-77
2021/03/09 06:35:35;;;;;;;8.93;2.55;;;-2.30;99.90;;;;;;4859324;28;20128;-77
2021/03/09 06:38:26;;;;;;;5.95;2.58;;;-1.90;99.90;;;;;;4887702;28;20098;-78
2021/03/09 06:41:14;;;;;;;10.43;2.70;;;-1.40;99.90;;;;;;4888036;28;20120;-77
2021/03/09 06:43:40;;;;;;;9.75;2.42;;;-0.50;99.90;;;;;;4866130;28;20173;-77
2021/03/09 06:46:16;;;;;;;9.73;2.30;;;0.60;99.90;;;;;;4889912;28;20461;-78
2021/03/09 06:48:39;;;;;;;;;;;0.80;99.90;;;;;;4854471;28;20091;-78
2021/03/09 06:51:04;;;;;;;8.20;2.92;;;2.90;99.90;;;;;;4869108;28;20303;-78
2021/03/09 06:53:29;;;;;;;9.15;2.88;;;3.20;99.90;;;;;;4866872;28;20518;-78
2021/03/09 06:55:55;;;;;;;8.27;2.70;;;3.80;99.90;;;;;;4886000;28;20450;-78
2021/03/09 06:58:30;;;;;;;10.52;2.45;;;4.30;99.90;;;;;;4894498;28;20098;-79
2021/03/09 07:00:54;;;;;;;11.48;3.30;;;;;;;;;;4888194;28;20098;-78
2021/03/09 07:03:34;;;;;;;19.33;5.70;;;5.70;99.90;;;;;;4890222;28;20107;-79
2021/03/09 07:05:57;;;;;;;9.27;3.83;;;5.80;99.90;;;;;;4889027;28;20132;-79
2021/03/09 07:08:29;;;;;;;17.42;6.13;;;6.00;99.90;;;;;;4890748;28;20079;-79
2021/03/09 07:10:58;;;;;;;16.10;5.30;;;5.80;99.90;;;;;;4891380;28;20087;-79
2021/03/09 07:13:23;;;;;;;75.13;21.73;;;6.00;99.90;;;;;;4884490;28;20088;-79
2021/03/09 07:16:05;;;;;;;29.00;9.52;;;6.00;99.90;;;;;;4883116;28;20082;-79
2021/03/09 07:18:54;;;;;;;34.75;11.63;;;6.10;99.90;;;;;;4887158;28;20094;-79
2021/03/09 07:21:18;;;;;;;39.42;10.93;;;5.80;99.90;;;;;;4886910;28;20461;-79
2021/03/09 07:23:43;;;;;;;20.95;7.13;;;6.30;99.90;;;;;;4886389;28;20078;-79
2021/03/09 07:26:14;;;;;;;30.23;10.07;;;7.20;98.80;;;;;;4889547;28;21582;-78
2021/03/09 07:28:43;;;;;;;43.72;16.80;;;7.40;98.70;;;;;;4890583;28;20453;-80
2021/03/09 07:31:08;;;;;;;25.17;10.60;;;7.30;98.20;;;;;;4884127;28;20134;-80
2021/03/09 07:33:41;;;;;;;13.85;4.93;;;8.10;96.70;;;;;;4907511;28;20547;-80
2021/03/09 07:36:11;;;;;;;57.78;21.00;;;8.30;95.80;;;;;;4899656;28;21009;-80
2021/03/09 07:38:39;;;;;;;56.92;21.27;;;8.30;95.70;;;;;;4890486;28;20096;-81
2021/03/09 07:41:02;;;;;;;43.88;19.83;;;8.90;94.90;;;;;;4880476;28;20089;-80
2021/03/09 07:43:38;;;;;;;28.40;11.55;;;8.20;95.00;;;;;;4889413;28;20107;-80
2021/03/09 07:46:08;;;;;;;10.43;4.47;;;8.40;94.40;;;;;;4889629;28;20458;-80
2021/03/09 07:48:33;;;;;;;10.45;3.15;;;8.00;94.20;;;;;;4883462;28;20477;-79
2021/03/09 07:51:04;;;;;;;19.48;5.40;;;8.40;93.20;;;;;;4888390;28;20096;-80
2021/03/09 07:53:27;;;;;;;20.88;10.30;;;8.00;93.40;;;;;;4850298;28;20096;-80
2021/03/09 07:56:13;;;;;;;8.48;4.47;;;8.90;93.70;;;;;;4872052;28;20085;-81
2021/03/09 07:58:38;;;;;;;5.93;2.33;;;;;;;;;;4889385;28;20172;-80
2021/03/09 08:01:05;;;;;;;4.27;1.73;;;9.10;92.00;;;;;;4885220;28;20093;-80
2021/03/09 08:03:31;;;;;;;10.52;1.85;;;8.80;92.20;;;;;;4875756;28;20078;-80
2021/03/09 08:06:02;;;;;;;10.38;2.22;;;8.40;91.90;;;;;;4870595;28;20148;-80
2021/03/09 08:09:01;;;;;;;5.20;2.00;;;8.40;93.10;;;;;;4835537;28;20105;-80
2021/03/09 08:12:06;;;;;;;7.93;1.98;;;8.50;91.00;;;;;;4819994;28;20152;-81
2021/03/09 08:15:31;;;;;;;6.15;1.70;;;8.80;92.00;;;;;;4849674;28;20089;-81
2021/03/09 08:18:56;;;;;;;5.65;1.88;;;9.10;90.30;;;;;;4836348;28;20082;-80
2021/03/09 08:28:36;;;;;;;6.68;1.48;;;8.80;88.00;;;;;;4804673;28;20410;-79
2021/03/09 08:34:54;;;;;;;4.38;1.45;;;8.40;89.60;;;;;;4836482;28;20178;-80
2021/03/09 08:40:41;;;;;;;10.70;1.67;;;7.20;90.60;;;;;;4822544;28;20101;-80
2021/03/09 08:44:01;;;;;;;5.40;1.65;;;7.30;90.20;;;;;;4823756;28;20087;-79
2021/03/09 08:52:56;;;;;;;3.85;1.15;;;7.70;89.70;;;;;;4823183;28;20138;-79
2021/03/09 08:55:57;;;;;;;2.60;1.02;;;7.30;89.90;;;;;;4805901;28;20116;-79
2021/03/09 09:08:47;;;;;;;5.05;0.95;;;8.00;88.30;;;;;;4813697;28;22392;-80
2021/03/09 09:18:10;;;;;;;6.65;1.50;;;7.10;88.30;;;;;;4824368;28;20002;-80
2021/03/09 09:28:24;;;;;;;1.73;0.90;;;6.90;91.00;;;;;;4832777;28;20106;-78
2021/03/09 09:38:28;;;;;;;3.85;0.98;;;6.20;91.10;;;;;;4819899;28;20083;-82
2021/03/09 09:48:21;;;;;;;5.63;1.25;;;5.70;92.70;;;;;;4819441;28;20088;-79
2021/03/09 09:51:13;;;;;;;5.80;0.93;;;5.30;94.00;;;;;;4819193;28;20130;-79
2021/03/09 10:07:51;;;;;;;5.28;1.45;;;4.40;95.40;;;;;;4810390;28;20114;-81
2021/03/09 10:17:29;;;;;;;2.90;0.98;;;4.50;95.60;;;;;;4828469;28;20515;-78
2021/03/09 10:20:05;;;;;;;3.42;1.02;;;4.30;95.70;;;;;;4837747;28;20429;-77
2021/03/09 10:22:48;;;;;;;3.83;1.00;;;4.00;95.40;;;;;;4827843;28;20168;-77
2021/03/09 10:29:20;;;;;;;4.50;1.27;;;4.10;97.30;;;;;;4829533;28;20419;-79
2021/03/09 10:32:38;;;;;;;2.72;1.02;;;4.40;97.10;;;;;;4829594;28;20095;-81
2021/03/09 10:42:32;;;;;;;5.80;1.30;;;4.70;97.80;;;;;;4813379;28;20099;-78
2021/03/09 10:45:53;;;;;;;5.05;1.30;;;5.00;95.70;;;;;;4827108;28;20084;-78
2021/03/09 10:49:00;;;;;;;4.75;1.15;;;4.90;96.00;;;;;;4834463;28;20095;-79
2021/03/09 10:51:24;;;;;;;5.55;1.38;;;4.80;96.90;;;;;;4835362;28;20092;-81
2021/03/09 10:53:47;;;;;;;2.95;1.40;;;;;;;;;;4887507;28;20088;-78
2021/03/09 10:56:24;;;;;;;4.53;1.23;;;4.70;97.60;;;;;;4874874;28;20091;-78
2021/03/09 10:58:49;;;;;;;4.32;1.23;;;4.60;96.00;;;;;;4886578;28;20086;-78
2021/03/09 11:01:19;;;;;;;4.00;1.30;;;4.60;96.80;;;;;;4887434;28;20083;-78
2021/03/09 11:03:42;;;;;;;3.63;1.15;;;4.80;95.80;;;;;;4889416;28;20457;-78
2021/03/09 11:06:15;;;;;;;2.47;1.33;;;4.70;95.80;;;;;;4890047;28;20094;-77
2021/03/09 11:08:46;;;;;;;3.05;1.30;;;4.60;95.20;;;;;;4884430;28;20094;-78
2021/03/09 11:11:38;;;;;;;12.52;3.72;;;4.60;96.50;;;;;;4884529;28;20084;-78
2021/03/09 11:14:00;;;;;;;18.15;1.73;;;4.40;95.70;;;;;;4879710;28;20087;-78
2021/03/09 11:16:23;;;;;;;5.18;2.08;;;4.20;97.10;;;;;;4901626;28;20111;-78
2021/03/09 11:18:46;;;;;;;3.08;1.27;;;4.50;96.20;;;;;;4891093;28;20187;-78
2021/03/09 11:21:13;;;;;;;6.88;1.20;;;4.70;96.20;;;;;;4890867;28;20083;-78
2021/03/09 11:23:35;;;;;;;3.88;1.10;;;4.50;95.80;;;;;;4876654;28;20095;-78
2021/03/09 11:26:00;;;;;;;2.05;1.25;;;4.30;95.80;;;;;;4891092;28;20083;-77
2021/03/09 11:28:22;;;;;;;4.50;1.13;;;4.50;96.40;;;;;;4892456;28;20102;-78
2021/03/09 11:30:54;;;;;;;4.20;1.60;;;4.50;96.00;;;;;;4892494;28;20099;-78
2021/03/09 11:33:18;;;;;;;4.72;1.55;;;4.20;96.30;;;;;;4879958;28;20460;-79
2021/03/09 11:35:40;;;;;;;6.50;1.02;;;4.40;96.20;;;;;;4882170;28;20095;-78
2021/03/09 11:38:05;;;;;;;3.15;1.27;;;4.50;95.80;;;;;;4892126;28;20525;-77
2021/03/09 11:40:30;;;;;;;2.75;0.98;;;4.60;96.40;;;;;;4890109;28;20087;-78
2021/03/09 11:42:59;;;;;;;3.50;1.53;;;4.80;95.90;;;;;;4877005;28;21239;-78
2021/03/09 11:45:29;;;;;;;2.50;1.08;;;4.70;95.20;;;;;;4881863;28;20113;-78
2021/03/09 11:48:06;;;;;;;3.63;0.90;;;4.70;96.00;;;;;;4891091;28;20088;-78
2021/03/09 11:50:37;;;;;;;1.65;0.80;;;4.70;94.80;;;;;;4886284;28;20539;-78
2021/03/09 11:53:19;;;;;;;1.90;0.70;;;4.70;95.90;;;;;;4889080;28;20595;-77
2021/03/09 11:55:41;;;;;;;4.90;1.27;;;4.80;95.90;;;;;;4887047;28;20087;-78
2021/03/09 11:58:11;;;;;;;2.17;0.88;;;4.50;94.70;;;;;;4882867;28;20087;-77
2021/03/09 12:00:39;;;;;;;4.05;0.77;;;4.40;96.00;;;;;;4890573;28;20142;-78
2021/03/09 12:03:05;;;;;;;5.13;0.93;;;4.50;95.60;;;;;;4885567;28;20485;-78
2021/03/09 12:05:29;;;;;;;7.65;1.42;;;4.50;95.80;;;;;;4885224;28;20095;-77
2021/03/09 12:07:53;;;;;;;2.05;1.00;;;4.50;94.80;;;;;;4890598;28;20477;-78
2021/03/09 12:10:29;;;;;;;2.75;0.88;;;4.40;95.60;;;;;;4884897;28;20097;-78
2021/03/09 12:12:52;;;;;;;10.40;1.52;;;4.70;95.20;;;;;;4885447;28;20086;-78
2021/03/09 12:15:16;;;;;;;6.00;1.30;;;4.70;95.00;;;;;;4869192;28;20126;-77
2021/03/09 12:17:44;;;;;;;2.95;1.27;;;4.60;94.80;;;;;;4888924;28;20079;-81
2021/03/09 12:20:10;;;;;;;3.20;1.00;;;4.50;95.80;;;;;;4886326;28;20087;-78
2021/03/09 12:22:40;;;;;;;2.58;0.82;;;4.60;95.90;;;;;;4872722;28;20133;-77
2021/03/09 12:25:03;;;;;;;4.95;0.77;;;4.60;95.80;;;;;;4881736;28;20075;-77
2021/03/09 12:27:27;;;;;;;11.82;1.35;;;4.60;94.80;;;;;;4884473;28;20084;-78
2021/03/09 12:29:51;;;;;;;9.52;1.50;;;4.40;94.80;;;;;;4888393;28;20098;-78
2021/03/09 12:32:18;;;;;;;2.58;1.20;;;4.30;94.70;;;;;;4888598;28;20088;-77
2021/03/09 12:34:40;;;;;;;7.07;1.02;;;4.20;94.50;;;;;;4885572;28;20091;-78
2021/03/09 12:37:04;;;;;;;7.15;1.20;;;4.30;95.30;;;;;;4883586;28;20484;-78
2021/03/09 12:39:27;;;;;;;2.72;1.27;;;4.30;94.50;;;;;;4888526;28;20110;-79
2021/03/09 12:41:51;;;;;;;4.22;0.98;;;4.20;94.90;;;;;;4887743;28;20091;-78
2021/03/09 12:44:15;;;;;;;4.57;1.50;;;4.30;95.50;;;;;;4888088;28;20087;-80
2021/03/09 12:46:37;;;;;;;3.70;1.55;;;4.40;95.40;;;;;;4890064;28;20145;-79
2021/03/09 12:49:01;;;;;;;2.75;1.45;;;4.40;94.80;;;;;;4887691;28;20095;-78
2021/03/09 12:51:23;;;;;;;5.72;1.35;;;4.30;95.10;;;;;;4891511;28;20091;-78
2021/03/09 12:53:48;;;;;;;3.55;1.30;;;4.40;94.60;;;;;;4888610;28;20095;-78
2021/03/09 12:56:11;;;;;;;2.60;1.20;;;4.50;95.30;;;;;;4879829;28;20092;-79
2021/03/09 12:58:40;;;;;;;2.70;1.10;;;4.60;94.90;;;;;;4892112;28;20095;-78
2021/03/09 13:01:02;;;;;;;3.00;1.05;;;4.60;95.50;;;;;;4874299;28;20090;-79
2021/03/09 13:03:30;;;;;;;1.83;0.57;;;4.50;94.30;;;;;;4874143;28;20095;-78
2021/03/09 13:05:54;;;;;;;2.10;0.90;;;4.50;94.90;;;;;;4873578;28;20088;-79
2021/03/09 13:08:33;;;;;;;2.63;1.20;;;4.60;94.40;;;;;;4880272;28;20100;-78
2021/03/09 13:11:10;;;;;;;7.05;1.35;;;4.70;94.00;;;;;;4888966;28;20087;-78
2021/03/09 13:13:43;;;;;;;5.70;1.30;;;4.60;93.30;;;;;;4878383;28;20129;-78
2021/03/09 13:16:06;;;;;;;2.85;1.00;;;4.60;94.40;;;;;;4871991;28;20518;-78
2021/03/09 13:18:34;;;;;;;2.80;0.70;;;4.70;93.40;;;;;;4885359;28;20142;-77
2021/03/09 13:21:00;;;;;;;3.53;1.17;;;4.60;94.00;;;;;;4874905;28;20083;-77
2021/03/09 13:23:23;;;;;;;2.90;1.10;;;4.60;93.40;;;;;;4884137;28;20141;-79
2021/03/09 13:25:45;;;;;;;2.50;1.00;;;4.60;92.80;;;;;;4884337;28;20100;-78
2021/03/09 13:28:08;;;;;;;11.27;1.23;;;4.60;92.60;;;;;;4891131;28;20084;-79
2021/03/09 13:30:30;;;;;;;2.60;0.90;;;4.60;93.60;;;;;;4889949;28;20103;-79
2021/03/09 13:32:55;;;;;;;1.80;1.02;;;4.60;91.80;;;;;;4890822;28;20090;-78
2021/03/09 13:35:18;;;;;;;6.57;1.05;;;;;;;;;;4862929;28;20107;-78
2021/03/09 13:37:42;;;;;;;3.00;0.60;;;4.60;91.00;;;;;;4866002;28;20092;-78
2021/03/09 13:40:06;;;;;;;1.50;0.50;;;4.70;92.10;;;;;;4860782;28;20137;-77
2021/03/09 13:42:28;;;;;;;5.70;1.02;;;4.80;91.30;;;;;;4861984;28;20080;-79
2021/03/09 13:44:51;;;;;;;2.67;0.70;;;4.90;92.10;;;;;;4861327;28;20094;-79
2021/03/09 13:47:13;;;;;;;3.42;0.73;;;4.90;92.90;;;;;;4888404;28;20098;-80
2021/03/09 13:49:36;;;;;;;1.27;0.68;;;5.10;93.40;;;;;;4888211;28;20153;-77
2021/03/09 13:51:59;;;;;;;1.17;0.70;;;5.20;93.00;;;;;;4889603;28;20141;-79
2021/03/09 13:54:22;;;;;;;4.75;0.88;;;5.30;91.60;;;;;;4880258;28;20496;-78
2021/03/09 13:56:45;;;;;;;2.58;0.95;;;;;;;;;;4887600;28;20094;-79
2021/03/09 13:59:08;;;;;;;2.78;1.00;;;5.20;90.20;;;;;;4891018;28;20122;-79
2021/03/09 14:01:30;;;;;;;2.05;1.00;;;5.10;90.60;;;;;;4887981;28;20168;-83
2021/03/09 14:03:53;;;;;;;2.50;0.93;;;5.00;90.50;;;;;;4890422;28;20157;-82
2021/03/09 14:06:15;;;;;;;3.13;0.90;;;4.80;91.10;;;;;;4887749;28;20087;-78
2021/03/09 14:08:38;;;;;;;2.80;0.80;;;4.80;90.70;;;;;;4890694;28;20083;-78
2021/03/09 14:11:02;;;;;;;2.33;0.80;;;4.80;90.70;;;;;;4884744;28;20116;-79
2021/03/09 14:13:25;;;;;;;3.25;0.63;;;4.80;90.60;;;;;;4890290;28;20091;-79
2021/03/09 14:15:47;;;;;;;1.77;0.70;;;5.00;90.70;;;;;;4877983;28;20125;-82
2021/03/09 14:18:10;;;;;;;3.53;0.90;;;5.10;89.90;;;;;;4888904;28;20083;-79
2021/03/09 14:20:33;;;;;;;2.25;0.90;;;5.10;90.00;;;;;;4888954;28;20091;-79
2021/03/09 14:22:55;;;;;;;2.67;1.05;;;5.20;87.80;;;;;;4889391;28;20222;-79
2021/03/09 14:25:18;;;;;;;4.63;1.20;;;7.20;89.20;;;;;;4887891;28;20092;-79
2021/03/09 14:27:42;;;;;;;3.30;1.35;;;5.20;88.20;;;;;;4888749;28;20104;-81
2021/03/09 14:30:07;;;;;;;4.57;1.00;;;5.00;90.20;;;;;;4863310;28;20118;-78